createdAt,value
2022-12-16T00:02:22.736Z,8.80
2022-12-16T00:04:51.173Z,8.40
2022-12-16T00:07:18.043Z,7.49
2022-12-16T00:09:44.877Z,7.57
2022-12-16T00:12:11.901Z,8.06
2022-12-16T00:14:40.718Z,7.91
2022-12-16T00:17:07.884Z,7.09
2022-12-16T00:19:35.372Z,7.23
2022-12-16T00:22:03.732Z,7.17
2022-12-16T00:24:30.813Z,6.61
2022-12-16T00:26:57.847Z,8.03
2022-12-16T00:29:24.604Z,8.33
2022-12-16T00:31:51.588Z,8.67
2022-12-16T00:34:19.834Z,8.20
2022-12-16T00:36:46.837Z,8.19
2022-12-16T00:39:15.288Z,9.40
2022-12-16T00:41:42.478Z,8.08
2022-12-16T00:44:10.624Z,7.74
2022-12-16T00:46:37.534Z,9.68
2022-12-16T00:49:04.447Z,8.64
2022-12-16T00:51:31.750Z,8.36
2022-12-16T00:53:58.642Z,7.79
2022-12-16T00:56:27.337Z,7.92
2022-12-16T00:58:54.100Z,6.99
2022-12-16T01:01:24.664Z,6.90
2022-12-16T01:03:51.541Z,6.68
2022-12-16T01:06:18.746Z,5.74
2022-12-16T01:08:45.631Z,6.94
2022-12-16T01:11:12.453Z,6.95
2022-12-16T01:13:40.824Z,7.42
2022-12-16T01:16:07.864Z,7.06
2022-12-16T01:18:36.278Z,6.54
2022-12-16T01:21:04.272Z,6.23
2022-12-16T01:23:31.317Z,7.67
2022-12-16T01:25:59.804Z,7.76
2022-12-16T01:28:26.778Z,8.01
2022-12-16T01:30:57.303Z,7.36
2022-12-16T01:33:24.456Z,7.18
2022-12-16T01:35:58.831Z,7.84
2022-12-16T01:38:25.722Z,6.94
2022-12-16T01:40:52.672Z,7.70
2022-12-16T01:43:25.661Z,7.84
2022-12-16T01:45:53.233Z,7.92
2022-12-16T01:48:31.360Z,7.26
2022-12-16T01:51:03.980Z,6.39
2022-12-16T01:53:32.207Z,6.65
2022-12-16T01:56:01.040Z,6.81
2022-12-16T01:58:31.708Z,5.98
2022-12-16T02:00:59.941Z,6.02
2022-12-16T02:03:32.288Z,4.80
2022-12-16T02:06:00.580Z,5.23
2022-12-16T02:08:27.389Z,5.78
2022-12-16T02:11:08.198Z,5.64
2022-12-16T02:13:49.842Z,5.46
2022-12-16T02:16:26.619Z,6.17
2022-12-16T02:19:01.303Z,7.09
2022-12-16T02:21:48.360Z,5.98
2022-12-16T02:24:43.970Z,5.19
2022-12-16T02:27:45.850Z,4.61
2022-12-16T02:30:47.723Z,3.69
2022-12-16T02:33:34.497Z,3.33
2022-12-16T02:36:11.484Z,3.95
2022-12-16T02:38:52.148Z,3.86
2022-12-16T02:41:29.839Z,3.84
2022-12-16T02:44:01.418Z,3.68
2022-12-16T02:46:31.740Z,4.62
2022-12-16T02:49:06.026Z,4.75
2022-12-16T02:51:36.152Z,4.68
2022-12-16T02:54:03.237Z,4.66
2022-12-16T02:56:41.497Z,4.21
2022-12-16T02:59:17.330Z,3.97
2022-12-16T03:01:50.390Z,4.07
2022-12-16T03:04:21.776Z,2.99
2022-12-16T03:06:51.232Z,3.23
2022-12-16T03:09:24.170Z,2.69
2022-12-16T03:11:54.208Z,2.78
2022-12-16T03:14:25.223Z,2.55
2022-12-16T03:16:57.345Z,2.71
2022-12-16T03:19:28.829Z,2.56
2022-12-16T03:22:00.453Z,3.29
2022-12-16T03:24:28.109Z,2.90
2022-12-16T03:27:07.348Z,2.76
2022-12-16T03:29:42.410Z,2.74
2022-12-16T03:32:15.613Z,2.57
2022-12-16T03:34:48.412Z,2.30
2022-12-16T03:37:16.104Z,2.17
2022-12-16T03:39:46.682Z,2.07
2022-12-16T03:42:15.307Z,2.12
2022-12-16T03:44:43.377Z,2.40
2022-12-16T03:47:11.932Z,2.23
2022-12-16T03:49:39.126Z,2.56
2022-12-16T03:52:06.334Z,2.24
2022-12-16T03:54:33.751Z,2.26
2022-12-16T03:57:01.319Z,2.21
2022-12-16T03:59:28.258Z,2.26
2022-12-16T04:01:55.325Z,2.03
2022-12-16T04:04:23.893Z,1.79
2022-12-16T04:06:50.680Z,1.52
2022-12-16T04:09:17.763Z,1.57
2022-12-16T04:11:44.472Z,1.37
2022-12-16T04:14:11.761Z,1.10
2022-12-16T04:16:38.988Z,1.43
2022-12-16T04:19:07.079Z,1.61
2022-12-16T04:21:35.309Z,1.45
2022-12-16T04:24:02.268Z,1.56
2022-12-16T04:26:29.362Z,1.42
2022-12-16T04:28:56.143Z,1.28
2022-12-16T04:31:23.203Z,1.12
2022-12-16T04:33:50.111Z,1.34
2022-12-16T04:36:17.132Z,1.51
2022-12-16T04:38:45.441Z,1.46
2022-12-16T04:41:13.573Z,1.56
2022-12-16T04:43:40.519Z,2.07
2022-12-16T04:46:07.762Z,2.08
2022-12-16T04:48:34.683Z,1.72
2022-12-16T04:51:02.464Z,1.38
2022-12-16T04:53:29.477Z,1.42
2022-12-16T04:56:03.900Z,1.18
2022-12-16T04:58:31.491Z,1.79
2022-12-16T05:01:00.166Z,2.25
2022-12-16T05:03:27.786Z,2.16
2022-12-16T05:05:54.639Z,1.96
2022-12-16T05:08:21.629Z,1.57
2022-12-16T05:10:48.361Z,1.91
2022-12-16T05:13:16.701Z,1.52
2022-12-16T05:15:43.790Z,1.31
2022-12-16T05:18:12.887Z,1.73
2022-12-16T05:20:39.620Z,2.48
2022-12-16T05:23:06.468Z,2.38
2022-12-16T05:25:33.298Z,2.12
2022-12-16T05:28:02.281Z,2.22
2022-12-16T05:30:33.661Z,1.93
2022-12-16T05:33:01.019Z,1.96
2022-12-16T05:35:27.964Z,2.05
2022-12-16T05:37:55.817Z,1.55
2022-12-16T05:40:22.730Z,1.79
2022-12-16T05:42:49.590Z,1.81
2022-12-16T05:45:16.514Z,1.53
2022-12-16T05:47:48.561Z,1.44
2022-12-16T05:50:15.776Z,1.24
2022-12-16T05:52:49.610Z,1.39
2022-12-16T05:55:16.629Z,1.94
2022-12-16T05:57:43.529Z,2.17
2022-12-16T06:00:11.866Z,3.34
2022-12-16T06:02:39.033Z,4.28
2022-12-16T06:05:08.196Z,4.45
2022-12-16T06:07:35.310Z,4.67
2022-12-16T06:10:02.191Z,4.05
2022-12-16T06:12:29.232Z,4.27
2022-12-16T06:14:59.533Z,3.67
2022-12-16T06:17:26.437Z,3.31
2022-12-16T06:19:54.362Z,2.36
2022-12-16T06:22:22.605Z,2.49
2022-12-16T06:24:49.444Z,1.92
2022-12-16T06:27:16.226Z,2.59
2022-12-16T06:29:44.185Z,2.19
2022-12-16T06:32:12.106Z,1.86
2022-12-16T06:34:39.207Z,2.58
2022-12-16T06:37:06.109Z,2.21
2022-12-16T06:39:34.427Z,2.80
2022-12-16T06:42:01.290Z,3.54
2022-12-16T06:44:29.276Z,4.16
2022-12-16T06:46:56.462Z,3.54
2022-12-16T06:49:24.221Z,2.91
2022-12-16T06:51:51.697Z,3.75
2022-12-16T06:54:18.604Z,5.16
2022-12-16T06:56:49.174Z,4.64
2022-12-16T06:59:15.990Z,4.37
2022-12-16T07:01:43.280Z,3.33
2022-12-16T07:04:11.973Z,3.18
2022-12-16T07:06:41.859Z,2.92
2022-12-16T07:09:09.961Z,3.11
2022-12-16T07:11:39.124Z,2.70
2022-12-16T07:14:08.072Z,2.85
2022-12-16T07:16:35.689Z,2.39
2022-12-16T07:19:10.769Z,2.23
2022-12-16T07:21:37.500Z,2.56
2022-12-16T07:24:06.314Z,2.57
2022-12-16T07:26:33.352Z,2.13
2022-12-16T07:29:01.350Z,3.28
2022-12-16T07:31:32.698Z,3.89
2022-12-16T07:34:02.908Z,55.69
2022-12-16T07:36:30.232Z,55.63
2022-12-16T07:38:57.151Z,91.83
2022-12-16T07:41:24.291Z,152.55
2022-12-16T07:43:51.219Z,88.00
2022-12-16T07:46:18.238Z,59.15
2022-12-16T07:48:46.686Z,106.53
2022-12-16T07:51:13.527Z,95.61
2022-12-16T07:53:41.087Z,119.41
2022-12-16T07:56:08.639Z,75.88
2022-12-16T07:58:35.508Z,43.30
2022-12-16T08:03:52.645Z,16.88
2022-12-16T08:06:19.859Z,21.53
2022-12-16T08:08:46.755Z,25.65
2022-12-16T08:11:14.772Z,20.82
2022-12-16T08:13:42.312Z,17.46
2022-12-16T08:16:09.245Z,13.57
2022-12-16T08:18:36.268Z,14.01
2022-12-16T08:21:04.748Z,12.53
2022-12-16T08:23:32.231Z,9.25
2022-12-16T08:25:59.190Z,8.73
2022-12-16T08:28:26.014Z,7.71
2022-12-16T08:30:52.933Z,6.14
2022-12-16T08:33:20.093Z,6.09
2022-12-16T08:35:47.328Z,4.84
2022-12-16T08:38:15.659Z,5.20
2022-12-16T08:40:43.321Z,5.26
2022-12-16T08:43:12.920Z,4.56
2022-12-16T08:45:40.565Z,4.13
2022-12-16T08:48:07.661Z,4.33
2022-12-16T08:50:34.508Z,4.00
2022-12-16T08:53:02.547Z,4.22
2022-12-16T08:55:30.759Z,5.26
2022-12-16T08:57:57.698Z,4.42
2022-12-16T09:00:25.620Z,3.67
2022-12-16T09:02:55.555Z,3.82
2022-12-16T09:05:22.950Z,3.81
2022-12-16T09:07:49.999Z,3.92
2022-12-16T09:10:17.113Z,5.19
2022-12-16T09:12:46.513Z,4.23
2022-12-16T09:15:13.695Z,4.11
2022-12-16T09:17:44.704Z,4.76
2022-12-16T09:20:12.693Z,4.64
2022-12-16T09:22:39.878Z,5.49
2022-12-16T09:25:07.345Z,4.77
2022-12-16T09:27:34.144Z,4.50
2022-12-16T09:30:02.547Z,5.25
2022-12-16T09:32:29.515Z,4.08
2022-12-16T09:34:56.423Z,4.48
2022-12-16T09:37:23.216Z,3.69
2022-12-16T09:39:51.202Z,4.32
2022-12-16T09:42:26.390Z,3.82
2022-12-16T09:45:03.040Z,3.29
2022-12-16T09:47:39.614Z,2.73
2022-12-16T09:50:20.575Z,2.90
2022-12-16T09:52:55.696Z,3.00
2022-12-16T09:55:29.118Z,3.88
2022-12-16T09:57:57.217Z,3.47
2022-12-16T10:00:26.807Z,3.59
2022-12-16T10:03:03.289Z,3.23
2022-12-16T10:05:49.940Z,2.82
2022-12-16T10:08:23.936Z,2.68
2022-12-16T10:13:32.860Z,2.28
2022-12-16T10:16:10.386Z,1.74
2022-12-16T10:18:50.357Z,1.75
2022-12-16T10:21:22.707Z,1.94
2022-12-16T10:23:57.334Z,2.71
2022-12-16T10:26:33.128Z,2.45
2022-12-16T10:29:13.307Z,2.86
2022-12-16T10:31:40.959Z,2.58
2022-12-16T10:34:13.746Z,2.76
2022-12-16T10:36:42.440Z,2.91
2022-12-16T10:39:22.619Z,2.90
2022-12-16T10:41:52.863Z,3.61
2022-12-16T10:44:24.475Z,3.51
2022-12-16T10:46:52.656Z,4.04
2022-12-16T10:49:21.581Z,5.38
2022-12-16T10:51:48.709Z,6.78
2022-12-16T10:54:33.087Z,5.06
2022-12-16T10:57:09.026Z,4.23
2022-12-16T10:59:38.456Z,4.42
2022-12-16T11:02:19.139Z,4.27
2022-12-16T11:04:48.074Z,4.16
2022-12-16T11:07:32.178Z,3.86
2022-12-16T11:09:58.980Z,3.29
2022-12-16T11:12:27.963Z,3.84
2022-12-16T11:15:27.166Z,3.25
2022-12-16T11:18:03.206Z,3.59
2022-12-16T11:20:31.435Z,3.83
2022-12-16T11:23:16.675Z,9.84
2022-12-16T11:25:43.422Z,10.10
2022-12-16T11:28:13.530Z,8.86
2022-12-16T11:30:40.262Z,7.41
2022-12-16T11:33:14.605Z,7.62
2022-12-16T11:35:48.287Z,6.72
2022-12-16T11:38:21.662Z,8.41
2022-12-16T11:40:49.761Z,7.93
2022-12-16T11:43:20.574Z,6.78
2022-12-16T11:45:49.021Z,4.98
2022-12-16T11:48:27.743Z,4.33
2022-12-16T11:50:58.451Z,3.80
2022-12-16T11:53:32.915Z,3.35
2022-12-16T11:56:07.606Z,4.24
2022-12-16T11:58:45.227Z,4.52
2022-12-16T12:01:17.332Z,4.81
2022-12-16T12:03:47.325Z,4.94
2022-12-16T12:06:27.033Z,4.84
2022-12-16T12:09:08.103Z,4.39
2022-12-16T12:11:42.346Z,3.84
2022-12-16T12:14:18.106Z,3.67
2022-12-16T12:16:59.726Z,5.64
2022-12-16T12:19:44.187Z,72.26
2022-12-16T12:22:27.506Z,51.27
2022-12-16T12:25:05.241Z,29.41
2022-12-16T12:27:44.522Z,16.94
2022-12-16T12:30:16.656Z,10.16
2022-12-16T12:32:53.838Z,7.09
2022-12-16T12:35:46.784Z,5.46
2022-12-16T12:38:19.886Z,5.61
2022-12-16T12:40:57.877Z,4.63
2022-12-16T12:43:37.530Z,4.63
2022-12-16T12:46:16.536Z,4.27
2022-12-16T12:48:56.104Z,3.90
2022-12-16T12:51:35.180Z,3.65
2022-12-16T12:54:15.744Z,4.11
2022-12-16T12:56:48.763Z,3.69
2022-12-16T12:59:22.532Z,3.85
2022-12-16T13:01:53.797Z,5.18
2022-12-16T13:04:25.659Z,4.47
2022-12-16T13:06:54.078Z,5.66
2022-12-16T13:09:25.930Z,5.82
2022-12-16T13:12:26.948Z,4.79
2022-12-16T13:14:56.382Z,5.07
2022-12-16T13:17:25.879Z,4.62
2022-12-16T13:19:59.559Z,3.66
2022-12-16T13:22:31.351Z,3.36
2022-12-16T13:24:59.666Z,3.52
2022-12-16T13:27:29.853Z,3.83
2022-12-16T13:30:02.523Z,3.45
2022-12-16T13:32:29.361Z,3.06
2022-12-16T13:35:01.045Z,2.83
2022-12-16T13:37:32.551Z,2.92
2022-12-16T13:40:07.174Z,3.13
2022-12-16T13:42:54.994Z,3.19
2022-12-16T13:45:41.645Z,3.77
2022-12-16T13:48:36.882Z,3.65
2022-12-16T13:51:03.827Z,3.53
2022-12-16T13:53:40.931Z,3.77
2022-12-16T13:56:15.568Z,3.65
2022-12-16T13:58:45.761Z,3.30
2022-12-16T14:01:18.033Z,3.28
2022-12-16T14:03:48.081Z,3.83
2022-12-16T14:06:19.615Z,3.30
2022-12-16T14:08:46.675Z,3.03
2022-12-16T14:11:21.878Z,3.04
2022-12-16T14:13:56.698Z,3.19
2022-12-16T14:16:36.609Z,3.03
2022-12-16T14:19:18.272Z,3.78
2022-12-16T14:21:51.385Z,3.65
2022-12-16T14:24:24.253Z,3.41
2022-12-16T14:26:53.196Z,3.72
2022-12-16T14:29:24.622Z,5.38
2022-12-16T14:31:53.279Z,4.78
2022-12-16T14:34:22.408Z,3.92
2022-12-16T14:36:49.773Z,3.48
2022-12-16T14:39:22.302Z,3.51
2022-12-16T14:41:53.076Z,3.06
2022-12-16T14:44:22.094Z,2.96
2022-12-16T14:46:50.549Z,2.34
2022-12-16T14:49:22.513Z,2.57
2022-12-16T14:51:49.729Z,2.00
2022-12-16T14:54:18.679Z,2.24
2022-12-16T14:56:45.514Z,1.73
2022-12-16T14:59:19.113Z,1.55
2022-12-16T15:01:46.840Z,2.05
2022-12-16T15:04:18.416Z,1.95
2022-12-16T15:06:49.747Z,2.01
2022-12-16T15:09:25.292Z,1.67
2022-12-16T15:11:55.573Z,1.79
2022-12-16T15:14:28.626Z,2.12
2022-12-16T15:19:24.854Z,2.11
2022-12-16T15:21:51.767Z,2.98
2022-12-16T15:24:23.057Z,2.13
2022-12-16T15:26:49.878Z,1.67
2022-12-16T15:29:33.845Z,1.77
2022-12-16T15:32:03.492Z,1.59
2022-12-16T15:34:34.280Z,2.31
2022-12-16T15:37:01.327Z,2.40
2022-12-16T15:39:35.646Z,2.30
2022-12-16T15:42:02.517Z,2.00
2022-12-16T15:44:31.891Z,4.16
2022-12-16T15:46:58.966Z,3.58
2022-12-16T15:49:31.721Z,4.47
2022-12-16T15:51:58.675Z,3.77
2022-12-16T15:54:26.086Z,3.77
2022-12-16T15:56:53.042Z,4.75
2022-12-16T15:59:26.861Z,6.97
2022-12-16T16:01:59.581Z,5.24
2022-12-16T16:04:30.517Z,5.58
2022-12-16T16:06:57.412Z,3.96
2022-12-16T16:09:27.012Z,3.92
2022-12-16T16:11:53.768Z,3.49
2022-12-16T16:14:20.711Z,2.72
2022-12-16T16:16:47.504Z,2.48
2022-12-16T16:19:21.775Z,3.19
2022-12-16T16:21:48.581Z,3.86
2022-12-16T16:24:15.487Z,3.11
2022-12-16T16:26:43.604Z,3.12
2022-12-16T16:29:10.956Z,3.61
2022-12-16T16:31:37.913Z,3.59
2022-12-16T16:34:05.218Z,2.99
2022-12-16T16:36:33.764Z,3.03
2022-12-16T16:39:01.188Z,2.79
2022-12-16T16:41:29.158Z,3.05
2022-12-16T16:43:56.597Z,3.64
2022-12-16T16:46:32.435Z,4.14
2022-12-16T16:49:02.277Z,5.08
2022-12-16T16:51:29.327Z,5.55
2022-12-16T16:53:57.504Z,6.93
2022-12-16T16:56:24.647Z,5.89
2022-12-16T16:58:51.369Z,6.26
2022-12-16T17:01:21.271Z,6.33
2022-12-16T17:03:48.469Z,6.72
2022-12-16T17:06:15.494Z,7.22
2022-12-16T17:08:42.430Z,7.45
2022-12-16T17:11:18.098Z,10.06
2022-12-16T17:13:44.936Z,7.94
2022-12-16T17:16:12.855Z,6.55
2022-12-16T17:18:44.620Z,6.08
2022-12-16T17:21:13.811Z,8.80
2022-12-16T17:23:40.888Z,8.82
2022-12-16T17:26:09.981Z,8.42
2022-12-16T17:28:38.163Z,8.19
2022-12-16T17:31:06.165Z,7.27
2022-12-16T17:33:33.581Z,8.38
2022-12-16T17:36:01.129Z,7.27
2022-12-16T17:38:29.131Z,7.25
2022-12-16T17:40:56.315Z,6.78
2022-12-16T17:43:25.242Z,7.60
2022-12-16T17:46:01.193Z,7.49
2022-12-16T17:48:27.946Z,7.50
2022-12-16T17:50:54.713Z,7.87
2022-12-16T17:53:22.640Z,7.30
2022-12-16T17:55:49.428Z,6.57
2022-12-16T17:58:16.279Z,5.56
2022-12-16T18:00:43.104Z,6.07
2022-12-16T18:03:11.572Z,7.20
2022-12-16T18:05:44.277Z,9.20
2022-12-16T18:08:13.228Z,8.97
2022-12-16T18:10:39.952Z,8.86
2022-12-16T18:13:06.733Z,11.70
2022-12-16T18:15:33.735Z,19.21
2022-12-16T18:18:00.503Z,20.87
2022-12-16T18:20:28.753Z,19.90
2022-12-16T18:22:55.579Z,14.34
2022-12-16T18:25:23.557Z,10.08
2022-12-16T18:27:50.404Z,8.97
2022-12-16T18:30:17.554Z,8.43
2022-12-16T18:32:44.329Z,8.49
2022-12-16T18:35:11.225Z,8.45
2022-12-16T18:37:39.317Z,7.52
2022-12-16T18:40:07.794Z,7.56
2022-12-16T18:42:34.701Z,8.38
2022-12-16T18:45:02.698Z,8.53
2022-12-16T18:47:29.480Z,7.71
2022-12-16T18:49:56.485Z,7.00
2022-12-16T18:52:23.323Z,7.28
2022-12-16T18:54:52.621Z,7.13
2022-12-16T18:57:19.657Z,6.01
2022-12-16T18:59:46.468Z,5.93
2022-12-16T19:02:15.524Z,7.24
2022-12-16T19:04:42.332Z,7.15
2022-12-16T19:07:09.586Z,7.63
2022-12-16T19:09:36.609Z,7.08
2022-12-16T19:12:06.748Z,6.07
2022-12-16T19:14:33.726Z,5.70
2022-12-16T19:17:00.862Z,5.35
2022-12-16T19:19:27.609Z,5.95
2022-12-16T19:24:41.426Z,20.26
2022-12-16T19:27:15.215Z,30.04
2022-12-16T19:29:42.399Z,18.92
2022-12-16T19:32:09.430Z,12.93
2022-12-16T19:34:36.308Z,10.98
2022-12-16T19:37:03.258Z,8.90
2022-12-16T19:39:30.354Z,8.61
2022-12-16T19:41:57.152Z,9.42
2022-12-16T19:44:26.398Z,8.71
2022-12-16T19:46:56.090Z,7.47
2022-12-16T19:49:23.139Z,7.23
2022-12-16T19:51:50.166Z,6.99
2022-12-16T19:54:17.157Z,7.01
2022-12-16T19:56:43.883Z,6.66
2022-12-16T19:59:10.826Z,6.38
2022-12-16T20:01:39.064Z,6.21
2022-12-16T20:04:06.156Z,5.90
2022-12-16T20:06:32.901Z,5.24
2022-12-16T20:08:59.744Z,5.30
2022-12-16T20:11:26.749Z,4.94
2022-12-16T20:13:56.026Z,4.87
2022-12-16T20:16:24.250Z,5.55
2022-12-16T20:18:54.928Z,5.00
2022-12-16T20:21:23.142Z,4.61
2022-12-16T20:23:51.111Z,4.53
2022-12-16T20:26:19.133Z,3.84
2022-12-16T20:28:47.582Z,3.66
2022-12-16T20:31:15.429Z,3.47
2022-12-16T20:33:42.627Z,3.26
2022-12-16T20:36:11.253Z,3.38
2022-12-16T20:38:38.091Z,3.30
2022-12-16T20:41:06.282Z,3.14
2022-12-16T20:43:34.056Z,3.04
2022-12-16T20:46:02.132Z,3.11
2022-12-16T20:48:29.042Z,3.12
2022-12-16T20:50:57.450Z,3.39
2022-12-16T20:53:26.841Z,3.71
2022-12-16T20:55:53.776Z,4.46
2022-12-16T20:58:23.317Z,4.68
2022-12-16T21:00:51.821Z,4.85
2022-12-16T21:03:18.825Z,4.48
2022-12-16T21:05:46.011Z,4.10
2022-12-16T21:08:14.307Z,3.74
2022-12-16T21:10:42.967Z,4.60
2022-12-16T21:13:14.252Z,5.26
2022-12-16T21:15:41.399Z,4.96
2022-12-16T21:18:08.446Z,4.34
2022-12-16T21:20:36.475Z,3.89
2022-12-16T21:23:09.412Z,3.94
2022-12-16T21:25:36.258Z,3.76
2022-12-16T21:28:04.849Z,3.73
2022-12-16T21:30:31.702Z,3.30
2022-12-16T21:32:58.721Z,2.93
2022-12-16T21:35:25.475Z,2.67
2022-12-16T21:37:53.246Z,2.48
2022-12-16T21:40:20.562Z,2.79
2022-12-16T21:42:47.339Z,2.91
2022-12-16T21:45:15.987Z,3.14
2022-12-16T21:47:43.772Z,4.35
2022-12-16T21:50:10.593Z,3.99
2022-12-16T21:52:37.729Z,6.12
2022-12-16T21:55:05.261Z,4.27
2022-12-16T21:57:33.022Z,2.84
2022-12-16T21:59:59.857Z,2.05
2022-12-16T22:02:28.080Z,1.70
2022-12-16T22:04:54.807Z,1.28
2022-12-16T22:07:23.797Z,0.92
2022-12-16T22:09:50.973Z,0.95
2022-12-16T22:12:18.760Z,1.02
2022-12-16T22:14:46.679Z,0.73
2022-12-16T22:17:13.507Z,1.12
2022-12-16T22:19:41.897Z,1.58
2022-12-16T22:22:08.671Z,1.49
2022-12-16T22:24:37.554Z,1.63
2022-12-16T22:27:04.386Z,1.11
2022-12-16T22:29:34.382Z,0.78
2022-12-16T22:32:01.228Z,0.57
2022-12-16T22:34:27.967Z,0.39
2022-12-16T22:39:45.187Z,0.34
2022-12-16T22:42:13.375Z,0.52
2022-12-16T22:44:40.151Z,0.61
2022-12-16T22:47:08.068Z,1.31
2022-12-16T22:49:34.807Z,1.23
2022-12-16T22:52:03.783Z,1.08
2022-12-16T22:54:30.745Z,0.81
2022-12-16T22:56:57.504Z,0.71
2022-12-16T22:59:24.436Z,0.68
2022-12-16T23:01:51.410Z,1.29
2022-12-16T23:04:18.786Z,0.88
2022-12-16T23:06:45.814Z,0.92
2022-12-16T23:09:14.147Z,0.81
2022-12-16T23:11:42.036Z,1.00
2022-12-16T23:14:09.065Z,0.81
2022-12-16T23:16:36.384Z,0.78
2022-12-16T23:19:03.243Z,0.65
2022-12-16T23:21:30.256Z,0.69
2022-12-16T23:23:57.211Z,0.75
2022-12-16T23:26:26.533Z,0.58
2022-12-16T23:28:55.138Z,0.70
2022-12-16T23:31:23.417Z,0.66
2022-12-16T23:33:50.272Z,0.68
2022-12-16T23:36:17.072Z,0.67
2022-12-16T23:38:43.904Z,0.77
2022-12-16T23:41:13.446Z,1.13
2022-12-16T23:43:42.170Z,0.79
2022-12-16T23:46:09.613Z,0.80
2022-12-16T23:48:36.501Z,0.88
2022-12-16T23:51:04.669Z,0.92
2022-12-16T23:53:31.653Z,0.88
2022-12-16T23:56:01.487Z,0.70
2022-12-16T23:58:28.269Z,0.76
